Time;durP1;ratioP1;P1;durP2;ratioP2;P2;SDS_P1;SDS_P2;PMS_P1;PMS_P2;Temp;Humidity;BMP_temperature;BMP_pressure;BME280_temperature;BME280_humidity;BME280_pressure;Samples;Min_cycle;Max_cycle;Signal;HPM_P1;HPM_P2
2021/08/19 00:00:40;;;;;;;6.25;3.50;;;;;;;18.05;49.41;101014.94;2615397;54;20038;-71
2021/08/19 00:03:13;;;;;;;5.43;3.42;;;;;;;18.07;50.07;101006.47;2613959;36;20776;-71
2021/08/19 00:05:44;;;;;;;5.13;3.40;;;;;;;18.05;50.20;101003.84;2615137;54;20193;-71
2021/08/19 00:08:14;;;;;;;6.05;3.50;;;;;;;18.04;49.59;101002.13;2651124;36;20050;-71
2021/08/19 00:10:44;;;;;;;6.35;3.30;;;;;;;18.05;49.90;101001.09;2615013;54;20137;-71
2021/08/19 00:13:14;;;;;;;4.78;2.95;;;;;;;18.04;50.09;100995.72;2650229;36;20030;-71
2021/08/19 00:15:44;;;;;;;5.28;3.00;;;;;;;18.04;50.18;100998.50;2614241;54;20038;-71
2021/08/19 00:18:17;;;;;;;4.05;2.53;;;;;;;18.05;49.98;101001.09;2651768;36;20038;-72
2021/08/19 00:20:46;;;;;;;5.32;2.97;;;;;;;18.02;49.91;100998.66;2614744;54;20030;-72
2021/08/19 00:23:16;;;;;;;5.75;3.45;;;;;;;18.05;49.97;101000.22;2651840;36;20038;-72
2021/08/19 00:25:46;;;;;;;5.63;3.20;;;;;;;18.04;49.70;100996.59;2614591;54;20038;-72
2021/08/19 00:28:16;;;;;;;6.43;3.50;;;;;;;18.05;49.64;100997.47;2651863;36;20985;-72
2021/08/19 00:30:46;;;;;;;4.95;3.22;;;;;;;18.06;50.36;100993.66;2615810;54;20030;-72
2021/08/19 00:33:19;;;;;;;5.18;3.20;;;;;;;18.08;50.11;100994.34;2652118;36;20063;-72
2021/08/19 00:35:49;;;;;;;5.28;2.83;;;;;;;18.03;50.18;100992.06;2615362;54;20035;-72
2021/08/19 00:38:19;;;;;;;5.88;3.25;;;;;;;18.06;49.82;100993.66;2651809;36;20038;-71
2021/08/19 00:40:49;;;;;;;4.78;2.92;;;;;;;18.05;49.93;100994.69;2614302;54;20038;-72
2021/08/19 00:43:20;;;;;;;5.78;3.40;;;;;;;18.05;49.79;100986.38;2651977;36;20805;-72
2021/08/19 00:45:50;;;;;;;4.60;3.08;;;;;;;18.03;50.22;100985.69;2615432;54;20030;-72
2021/08/19 00:48:23;;;;;;;5.10;3.25;;;;;;;18.08;50.22;100983.28;2651587;36;20133;-72
2021/08/19 00:50:53;;;;;;;4.82;3.05;;;;;;;18.03;50.62;100980.16;2614573;54;20537;-72
2021/08/19 00:53:23;;;;;;;5.47;3.60;;;;;;;18.05;50.25;100981.72;2650712;36;20058;-72
2021/08/19 00:55:53;;;;;;;6.05;3.35;;;;;;;18.06;50.09;100977.91;2614838;54;20030;-72
2021/08/19 00:58:23;;;;;;;5.97;3.53;;;;;;;18.05;50.55;100981.72;2651551;36;20046;-72
2021/08/19 01:00:53;;;;;;;5.30;3.28;;;;;;;18.04;50.15;100979.97;2615393;54;20045;-72
2021/08/19 01:03:28;;;;;;;5.55;3.13;;;;;;;18.08;50.34;100977.72;2650398;36;20045;-72
2021/08/19 01:05:57;;;;;;;5.13;3.70;;;;;;;18.03;50.16;100978.22;2614830;54;20118;-72
2021/08/19 01:08:27;;;;;;;4.57;3.05;;;;;;;18.00;50.36;100970.28;2650735;36;20030;-72
2021/08/19 01:10:57;;;;;;;6.88;3.25;;;;;;;18.01;50.36;100982.22;2614856;54;20147;-72
2021/08/19 01:13:28;;;;;;;4.88;2.97;;;;;;;18.00;50.38;100975.81;2651556;36;20053;-72
2021/08/19 01:15:58;;;;;;;5.75;3.40;;;;;;;17.99;50.55;100979.63;2614106;54;20046;-72
2021/08/19 01:18:39;;;;;;;4.55;3.20;;;;;;;18.03;50.50;100978.22;2651646;36;20060;-71
2021/08/19 01:21:09;;;;;;;5.80;3.30;;;;;;;17.98;50.51;100972.38;2615144;54;20022;-72
2021/08/19 01:23:40;;;;;;;5.40;3.28;;;;;;;17.98;50.42;100969.59;2651649;36;20585;-72
2021/08/19 01:26:11;;;;;;;6.43;3.47;;;;;;;18.01;50.42;100979.47;2614370;54;21359;-72
2021/08/19 01:28:45;;;;;;;6.00;3.30;;;;;;;18.01;50.16;100973.94;2651195;36;20049;-72
2021/08/19 01:31:17;;;;;;;6.03;3.55;;;;;;;17.98;50.65;100964.06;2615647;54;20122;-70
2021/08/19 01:33:50;;;;;;;5.80;3.00;;;;;;;17.97;50.59;100969.78;2651968;36;20150;-72
2021/08/19 01:36:20;;;;;;;;;;;;;;;17.71;50.87;100978.31;2613643;47;20609;-70
2021/08/19 01:38:50;;;;;;;4.55;3.03;;;;;;;17.93;50.35;100966.50;2651274;36;19957;-70
2021/08/19 01:41:20;;;;;;;5.97;3.30;;;;;;;17.95;50.14;100969.94;2614512;54;20041;-69
2021/08/19 01:43:54;;;;;;;4.85;2.80;;;;;;;17.98;50.94;100971.50;2651356;36;20049;-72
2021/08/19 01:46:24;;;;;;;5.45;3.60;;;;;;;17.95;50.60;100972.72;2614406;54;20086;-72
2021/08/19 01:48:54;;;;;;;5.15;3.00;;;;;;;17.95;50.43;100969.09;2651755;36;20034;-72
2021/08/19 01:51:26;;;;;;;;;;;;;;;17.69;50.68;100961.06;2615582;47;20582;-72
2021/08/19 01:53:57;;;;;;;4.97;2.60;;;;;;;17.92;50.51;100970.31;2651187;36;19958;-70
2021/08/19 01:56:27;;;;;;;5.70;3.10;;;;;;;17.94;50.53;100964.63;2613973;54;20059;-70
2021/08/19 01:58:59;;;;;;;5.65;2.97;;;;;;;17.98;50.46;100963.19;2651890;36;20053;-70
2021/08/19 02:01:29;;;;;;;6.40;3.50;;;;;;;17.97;50.88;100967.00;2615521;54;20027;-71
2021/08/19 02:04:00;;;;;;;6.07;3.40;;;;;;;17.98;50.66;100963.19;2651529;36;20050;-70
2021/08/19 02:06:30;;;;;;;6.72;3.15;;;;;;;17.98;50.58;100965.97;2615057;54;20905;-70
2021/08/19 02:09:00;;;;;;;5.10;3.30;;;;;;;17.98;50.49;100963.19;2651805;36;20948;-70
2021/08/19 02:11:30;;;;;;;5.93;3.67;;;;;;;17.99;51.01;100964.94;2615147;54;20034;-70
2021/08/19 02:14:03;;;;;;;4.38;3.15;;;;;;;18.02;50.63;100967.34;2651050;36;20035;-70
2021/08/19 02:16:33;;;;;;;5.35;3.00;;;;;;;18.00;50.80;100967.53;2614867;54;20544;-70
2021/08/19 02:19:03;;;;;;;5.55;2.97;;;;;;;17.99;50.63;100973.22;2649828;36;20038;-70
2021/08/19 02:21:33;;;;;;;5.28;3.30;;;;;;;17.99;50.56;100964.94;2615731;54;20041;-70
2021/08/19 02:24:03;;;;;;;6.07;3.35;;;;;;;17.99;51.21;100967.69;2651442;36;20528;-71
2021/08/19 02:26:33;;;;;;;5.75;3.28;;;;;;;18.00;50.71;100963.88;2614807;54;20033;-71
2021/08/19 02:29:05;;;;;;;4.80;3.42;;;;;;;18.02;50.85;100962.69;2651748;36;20077;-70
2021/08/19 02:31:40;;;;;;;5.57;3.50;;;;;;;18.00;50.79;100966.66;2614388;54;20042;-70
2021/08/19 02:34:11;;;;;;;6.13;3.45;;;;;;;18.01;50.99;100962.84;2651370;36;20133;-70
2021/08/19 02:36:41;;;;;;;5.88;3.15;;;;;;;18.02;50.99;100965.44;2615703;39;20466;-70
2021/08/19 02:39:11;;;;;;;5.80;3.13;;;;;;;18.02;50.88;100964.59;2651496;36;20590;-71
2021/08/19 02:41:41;;;;;;;6.75;3.50;;;;;;;18.02;51.01;100957.16;2614851;54;20034;-71
2021/08/19 02:44:14;;;;;;;5.65;3.65;;;;;;;18.03;51.09;100960.78;2650208;36;20069;-70
2021/08/19 02:46:44;;;;;;;5.32;3.30;;;;;;;18.02;50.95;100964.59;2614896;54;20145;-71
2021/08/19 02:49:14;;;;;;;5.28;3.30;;;;;;;17.99;51.13;100951.09;2651487;36;20791;-70
2021/08/19 02:51:44;;;;;;;5.40;3.25;;;;;;;17.98;51.28;100953.00;2614799;54;20858;-70
2021/08/19 02:54:14;;;;;;;6.10;3.50;;;;;;;17.99;51.04;100959.41;2651242;36;20145;-70
2021/08/19 02:56:44;;;;;;;6.22;3.63;;;;;;;17.99;51.02;100953.84;2614664;54;20030;-70
2021/08/19 02:59:17;;;;;;;5.45;3.53;;;;;;;18.01;51.30;100954.56;2651214;36;20046;-70
2021/08/19 03:01:46;;;;;;;;;;;;;;;17.73;51.47;100956.88;2616008;54;20776;-70
2021/08/19 03:04:16;;;;;;;5.32;3.35;;;;;;;17.93;51.23;100958.22;2649877;36;19946;-70
2021/08/19 03:06:46;;;;;;;6.85;3.53;;;;;;;17.97;51.34;100953.16;2615006;54;20061;-71
2021/08/19 03:09:16;;;;;;;4.82;3.03;;;;;;;17.96;51.01;100956.97;2652536;36;20030;-71
2021/08/19 03:11:46;;;;;;;5.50;3.40;;;;;;;17.95;51.16;100956.09;2616067;54;20035;-71
2021/08/19 03:14:19;;;;;;;7.10;3.42;;;;;;;17.97;51.70;100954.03;2651563;36;20038;-71
2021/08/19 03:16:49;;;;;;;8.70;3.72;;;;;;;17.94;51.43;100948.88;2614583;54;20034;-71
2021/08/19 03:19:19;;;;;;;5.93;3.42;;;;;;;17.94;51.36;100948.88;2652339;36;20514;-71
2021/08/19 03:21:49;;;;;;;5.20;3.20;;;;;;;17.93;51.21;100949.03;2615862;54;20027;-71
2021/08/19 03:24:19;;;;;;;6.32;3.50;;;;;;;17.93;51.38;100952.69;2652920;36;20839;-71
2021/08/19 03:26:49;;;;;;;5.95;3.20;;;;;;;17.93;51.27;100949.91;2615425;54;20030;-71
2021/08/19 03:29:22;;;;;;;6.63;3.60;;;;;;;17.95;51.77;100953.34;2652989;31;20491;-71
2021/08/19 03:31:52;;;;;;;;;;;;;;;17.66;51.89;100951.19;2616623;39;20744;-71
2021/08/19 03:34:22;;;;;;;5.50;3.20;;;;;;;17.88;51.69;100959.75;2651804;36;20433;-71
2021/08/19 03:36:53;;;;;;;4.85;3.13;;;;;;;17.91;51.63;100951.13;2615813;54;20136;-71
2021/08/19 03:39:23;;;;;;;6.03;2.97;;;;;;;17.90;51.49;100953.03;2652268;36;20037;-71
2021/08/19 03:41:53;;;;;;;6.22;3.60;;;;;;;17.91;51.47;100949.22;2617215;54;20049;-71
2021/08/19 03:44:26;;;;;;;5.82;3.20;;;;;;;17.93;51.79;100949.91;2656082;36;20034;-71
2021/08/19 03:46:56;;;;;;;5.80;3.10;;;;;;;17.88;51.50;100949.56;2616031;39;20575;-71
2021/08/19 03:49:25;;;;;;;7.07;3.33;;;;;;;17.89;51.46;100939.34;2648020;36;20042;-71
2021/08/19 03:51:55;;;;;;;7.65;3.55;;;;;;;17.89;51.49;100950.44;2615613;54;20167;-71
2021/08/19 03:54:25;;;;;;;6.43;3.20;;;;;;;17.89;51.61;100951.28;2648500;36;20525;-71
2021/08/19 03:56:55;;;;;;;5.55;3.25;;;;;;;17.88;51.51;100945.94;2615470;54;20107;-71
2021/08/19 03:59:28;;;;;;;6.47;3.78;;;;;;;17.90;52.18;100949.38;2651606;36;20045;-71
2021/08/19 04:01:57;;;;;;;;;;;;;;;17.61;52.26;100944.47;2616160;54;20058;-71
2021/08/19 04:04:28;;;;;;;5.65;3.50;;;;;;;17.84;51.80;100939.03;2633006;36;19950;-71
2021/08/19 04:06:57;;;;;;;5.72;3.50;;;;;;;17.87;51.10;100938.66;2615509;54;20038;-71
2021/08/19 04:09:27;;;;;;;5.70;3.35;;;;;;;17.87;51.47;100934.00;2633747;36;20046;-71
2021/08/19 04:11:57;;;;;;;5.53;3.10;;;;;;;17.87;51.51;100944.19;2615767;54;20027;-71
2021/08/19 04:14:31;;;;;;;6.05;3.33;;;;;;;17.88;51.74;100941.25;2636075;36;20039;-71
2021/08/19 04:17:01;;;;;;;5.47;3.63;;;;;;;17.85;51.59;100941.63;2622482;36;20023;-71
2021/08/19 04:19:31;;;;;;;4.80;3.20;;;;;;;17.85;51.79;100936.09;2633684;36;20030;-71
2021/08/19 04:22:02;;;;;;;6.22;3.42;;;;;;;17.83;51.66;100938.19;2635203;36;20584;-71
2021/08/19 04:24:32;;;;;;;5.63;3.05;;;;;;;17.83;51.52;100940.94;2615114;54;20593;-71
2021/08/19 04:27:02;;;;;;;5.68;3.38;;;;;;;17.84;51.36;100944.56;2633413;36;20038;-71
2021/08/19 04:29:35;;;;;;;5.95;3.30;;;;;;;17.84;51.53;100944.56;2615165;54;20034;-71
2021/08/19 04:32:05;;;;;;;5.78;3.42;;;;;;;17.79;51.67;100944.22;2652208;36;20034;-71
2021/08/19 04:34:35;;;;;;;5.80;3.15;;;;;;;17.79;51.69;100944.22;2615136;54;20026;-71
2021/08/19 04:37:06;;;;;;;4.78;2.88;;;;;;;17.79;51.55;100939.56;2651948;36;20062;-71
2021/08/19 04:39:36;;;;;;;5.43;2.97;;;;;;;17.78;51.68;100951.69;2615118;54;20126;-71
2021/08/19 04:42:06;;;;;;;5.20;3.15;;;;;;;17.77;51.74;100949.97;2652066;36;20045;-71
2021/08/19 04:44:39;;;;;;;7.53;3.28;;;;;;;17.79;51.86;100947.00;2615106;54;20170;-71
2021/08/19 04:47:09;;;;;;;6.43;3.60;;;;;;;17.76;51.52;100947.38;2652205;36;20035;-71
2021/08/19 04:49:39;;;;;;;5.53;3.58;;;;;;;17.75;51.59;100953.94;2614792;54;20042;-71
2021/08/19 04:52:25;;;;;;;6.75;3.75;;;;;;;17.78;51.50;100948.94;2650616;36;20030;-71
2021/08/19 04:54:55;;;;;;;4.80;3.03;;;;;;;17.73;51.61;100948.56;2615084;54;20046;-71
2021/08/19 04:57:25;;;;;;;6.05;3.50;;;;;;;17.73;51.56;100950.47;2651612;36;20038;-71
2021/08/19 04:59:57;;;;;;;7.20;3.53;;;;;;;17.76;52.08;100956.53;2614751;54;20042;-71
2021/08/19 05:02:27;;;;;;;6.43;3.17;;;;;;;17.71;52.14;100947.88;2651906;36;20037;-71
2021/08/19 05:04:58;;;;;;;5.82;3.40;;;;;;;17.73;52.04;100956.00;2614747;39;20426;-71
2021/08/19 05:07:30;;;;;;;5.03;3.05;;;;;;;17.72;51.34;100948.75;2651141;36;20058;-71
2021/08/19 05:10:00;;;;;;;4.97;3.05;;;;;;;17.70;51.83;100949.78;2615041;54;20065;-71
2021/08/19 05:12:30;;;;;;;5.90;3.13;;;;;;;17.71;51.49;100956.19;2651405;36;20620;-71
2021/08/19 05:15:02;;;;;;;5.30;3.35;;;;;;;17.75;51.82;100957.56;2614775;54;20038;-71
2021/08/19 05:17:32;;;;;;;4.90;3.13;;;;;;;17.70;51.49;100960.84;2651783;36;20038;-71
2021/08/19 05:20:02;;;;;;;5.47;3.15;;;;;;;17.71;51.75;100956.19;2614777;54;20070;-71
2021/08/19 05:22:32;;;;;;;5.40;3.15;;;;;;;17.71;51.91;100961.72;2651958;36;20041;-71
2021/08/19 05:25:02;;;;;;;4.63;2.92;;;;;;;17.72;51.58;100966.22;2614514;54;20125;-71
2021/08/19 05:27:32;;;;;;;6.70;3.25;;;;;;;17.72;51.73;100963.44;2650854;36;20046;-71
2021/08/19 05:30:06;;;;;;;5.45;2.85;;;;;;;17.73;51.69;100964.31;2614478;54;20099;-71
2021/08/19 05:32:37;;;;;;;4.85;2.97;;;;;;;17.70;51.69;100971.09;2651333;36;20042;-71
2021/08/19 05:35:08;;;;;;;4.70;2.80;;;;;;;17.71;51.47;100970.00;2614584;54;20038;-71
2021/08/19 05:37:38;;;;;;;6.07;3.17;;;;;;;17.71;51.47;100975.53;2651671;36;20085;-71
2021/08/19 05:40:10;;;;;;;5.20;3.22;;;;;;;17.72;51.93;100970.88;2615003;54;20042;-71
2021/08/19 05:42:40;;;;;;;5.60;3.00;;;;;;;17.67;51.68;100974.19;2651616;36;20577;-71
2021/08/19 05:45:13;;;;;;;5.70;2.97;;;;;;;17.72;51.90;100977.28;2615104;39;20785;-71
2021/08/19 05:47:43;;;;;;;4.90;3.15;;;;;;;17.70;51.69;100976.63;2651296;36;20072;-71
2021/08/19 05:50:13;;;;;;;4.50;3.20;;;;;;;17.68;51.68;100978.69;2614605;54;20039;-71
2021/08/19 05:52:44;;;;;;;4.80;2.88;;;;;;;17.69;51.39;100975.75;2651811;36;20474;-71
2021/08/19 05:55:14;;;;;;;5.30;3.13;;;;;;;17.68;51.82;100974.03;2614806;54;20597;-71
2021/08/19 05:57:45;;;;;;;4.70;3.00;;;;;;;17.70;51.74;100977.44;2650881;36;20057;-71
2021/08/19 06:00:22;;;;;;;5.38;2.92;;;;;;;17.73;51.86;100979.00;2614694;39;20533;-71
2021/08/19 06:02:53;;;;;;;6.03;3.30;;;;;;;17.72;51.35;100982.81;2651631;36;20030;-71
2021/08/19 06:05:24;;;;;;;6.38;3.83;;;;;;;17.72;52.21;100976.41;2614711;54;20038;-71
2021/08/19 06:07:54;;;;;;;5.45;3.10;;;;;;;17.72;51.77;100977.28;2649469;36;20045;-71
2021/08/19 06:10:24;;;;;;;5.63;2.80;;;;;;;17.72;51.80;100974.50;2613992;54;20038;-71
2021/08/19 06:12:54;;;;;;;5.38;3.42;;;;;;;17.73;51.77;100991.97;2651300;36;20449;-71
2021/08/19 06:15:27;;;;;;;5.68;3.28;;;;;;;17.74;52.17;100989.03;2614006;54;20057;-71
2021/08/19 06:17:56;;;;;;;5.70;2.80;;;;;;;17.69;51.52;100991.47;2650303;36;20509;-71
2021/08/19 06:20:27;;;;;;;4.50;3.28;;;;;;;17.70;52.01;100985.75;2614132;54;20077;-74
2021/08/19 06:22:57;;;;;;;6.60;3.42;;;;;;;17.70;51.93;100987.69;2651425;36;20521;-75
2021/08/19 06:25:27;;;;;;;5.65;3.47;;;;;;;17.70;51.86;100985.75;2614121;54;20039;-75
2021/08/19 06:27:57;;;;;;;7.07;3.85;;;;;;;17.70;51.85;100995.97;2649625;36;20057;-73
2021/08/19 06:30:32;;;;;;;5.60;3.50;;;;;;;17.73;51.73;100989.22;2612510;54;20038;-74
2021/08/19 06:33:03;;;;;;;5.45;3.40;;;;;;;17.70;52.04;100988.50;2665707;36;20043;-74
2021/08/19 06:35:33;;;;;;;5.72;3.35;;;;;;;17.68;52.03;100993.38;2614357;54;20065;-75
2021/08/19 06:38:03;;;;;;;5.72;3.55;;;;;;;17.70;51.60;100988.50;2649191;36;20038;-76
2021/08/19 06:40:33;;;;;;;5.68;3.67;;;;;;;17.72;52.00;100998.53;2613523;54;20066;-76
2021/08/19 06:43:03;;;;;;;6.20;3.80;;;;;;;17.72;51.93;100996.66;2649170;36;20097;-73
2021/08/19 06:45:36;;;;;;;6.80;3.58;;;;;;;17.75;51.83;100995.44;2613301;54;20057;-74
2021/08/19 06:48:06;;;;;;;;;;;;;;;17.47;51.95;100994.94;2648448;36;20075;-74
2021/08/19 06:50:36;;;;;;;5.75;3.53;;;;;;;17.67;52.15;100994.41;2612656;54;19953;-74
2021/08/19 06:53:07;;;;;;;5.85;3.35;;;;;;;17.71;51.85;100997.69;2650004;36;20153;-74
2021/08/19 06:55:37;;;;;;;6.80;3.97;;;;;;;17.73;51.69;101003.03;2612711;39;20547;-74
2021/08/19 06:58:07;;;;;;;7.43;4.25;;;;;;;17.74;51.35;101004.78;2650495;36;20034;-75
2021/08/19 07:00:40;;;;;;;6.82;3.88;;;;;;;17.75;51.59;101003.75;2613809;39;20461;-74
2021/08/19 07:03:10;;;;;;;5.18;3.80;;;;;;;17.73;51.85;101012.22;2667016;36;20058;-74
2021/08/19 07:05:40;;;;;;;5.60;3.63;;;;;;;17.75;51.96;101000.97;2614207;39;20675;-74
2021/08/19 07:08:10;;;;;;;6.20;4.18;;;;;;;17.77;51.78;101010.84;2650216;36;20062;-75
2021/08/19 07:10:41;;;;;;;6.82;3.95;;;;;;;17.77;51.87;101009.97;2614567;54;20038;-76
2021/08/19 07:13:10;;;;;;;5.63;3.90;;;;;;;17.78;51.71;101003.41;2652055;36;20093;-75
2021/08/19 07:15:45;;;;;;;6.13;3.78;;;;;;;17.82;51.94;101007.53;2614813;54;20049;-75
2021/08/19 07:18:15;;;;;;;5.82;3.97;;;;;;;17.80;51.87;100993.00;2650069;36;20030;-75
2021/08/19 07:20:45;;;;;;;6.43;4.10;;;;;;;17.82;51.99;101011.16;2614990;54;20039;-75
2021/08/19 07:23:15;;;;;;;5.80;3.60;;;;;;;17.82;51.80;101005.63;2650177;36;20166;-76
2021/08/19 07:25:45;;;;;;;6.32;3.92;;;;;;;17.83;52.24;101006.50;2612132;54;20042;-74
2021/08/19 07:28:15;;;;;;;7.65;4.18;;;;;;;17.86;51.76;101011.69;2649599;36;20035;-74
2021/08/19 07:30:47;;;;;;;6.70;3.90;;;;;;;17.88;52.46;101004.03;2613373;47;20039;-75
2021/08/19 07:33:18;;;;;;;;;;;;;;;17.60;52.49;101011.91;2649619;36;20042;-74
2021/08/19 07:35:49;;;;;;;5.35;3.15;;;;;;;17.83;51.98;101007.34;2613139;54;19946;-74
2021/08/19 07:38:20;;;;;;;5.72;3.58;;;;;;;17.88;52.05;101015.97;2647374;36;20141;-74
2021/08/19 07:40:50;;;;;;;6.45;3.55;;;;;;;17.89;51.76;101016.84;2614355;54;20039;-74
2021/08/19 07:43:20;;;;;;;5.88;3.78;;;;;;;17.90;52.08;101018.56;2632158;36;20154;-75
2021/08/19 07:45:53;;;;;;;6.07;3.33;;;;;;;17.93;51.96;101012.69;2614070;54;20663;-74
2021/08/19 07:48:23;;;;;;;5.82;3.50;;;;;;;17.92;51.82;101020.13;2650804;36;20038;-75
2021/08/19 07:50:53;;;;;;;6.00;3.33;;;;;;;17.94;51.96;101023.59;2613832;54;20053;-74
2021/08/19 07:53:23;;;;;;;5.22;3.60;;;;;;;17.93;52.05;101021.00;2653881;36;20039;-76
2021/08/19 07:55:53;;;;;;;6.22;3.45;;;;;;;17.96;52.16;101015.97;2617553;54;20034;-77
2021/08/19 07:58:23;;;;;;;5.53;3.80;;;;;;;17.97;51.71;101014.06;2657242;36;20103;-77
2021/08/19 08:00:56;;;;;;;7.28;4.10;;;;;;;18.00;51.33;101017.34;2614823;54;20038;-75
2021/08/19 08:03:26;;;;;;;7.10;3.85;;;;;;;17.98;51.42;101019.41;2650422;36;20038;-76
2021/08/19 08:05:56;;;;;;;7.85;3.90;;;;;;;17.97;51.87;101028.75;2614589;54;20561;-76
2021/08/19 08:08:26;;;;;;;6.93;4.00;;;;;;;17.97;51.46;101026.00;2651014;36;20081;-76
2021/08/19 08:10:56;;;;;;;6.45;4.35;;;;;;;17.98;51.69;101027.72;2615560;54;20575;-76
2021/08/19 08:13:26;;;;;;;6.35;4.10;;;;;;;17.98;51.47;101024.97;2651457;36;20565;-76
2021/08/19 08:15:59;;;;;;;6.85;4.30;;;;;;;18.02;51.35;101028.25;2613222;54;20039;-76
2021/08/19 08:18:29;;;;;;;7.72;4.43;;;;;;;17.98;51.57;101032.41;2651780;36;20413;-76
2021/08/19 08:21:01;;;;;;;7.63;4.30;;;;;;;17.99;51.47;101028.59;2615228;54;20038;-77
2021/08/19 08:23:33;;;;;;;7.32;4.78;;;;;;;17.97;51.37;101033.44;2651720;36;20109;-78
2021/08/19 08:26:03;;;;;;;7.47;4.70;;;;;;;17.96;51.33;101034.47;2614750;54;20034;-77
2021/08/19 08:28:36;;;;;;;7.40;4.25;;;;;;;17.96;51.53;101035.34;2650438;36;20038;-76
2021/08/19 08:31:08;;;;;;;8.25;4.75;;;;;;;17.99;50.93;101036.91;2613977;54;20038;-76
2021/08/19 08:33:38;;;;;;;6.97;4.82;;;;;;;17.97;51.44;101038.97;2652110;36;20118;-77
2021/08/19 08:36:09;;;;;;;7.18;4.43;;;;;;;17.96;51.39;101038.09;2614524;39;20545;-75
2021/08/19 08:38:39;;;;;;;7.55;5.30;;;;;;;17.96;51.19;101034.47;2651960;36;20038;-75
2021/08/19 08:41:09;;;;;;;6.57;4.22;;;;;;;17.94;51.40;101040.22;2615296;54;20161;-77
2021/08/19 08:43:40;;;;;;;7.63;4.75;;;;;;;17.95;51.58;101044.69;2651612;36;20023;-77
2021/08/19 08:46:17;;;;;;;8.23;4.55;;;;;;;17.96;51.45;101034.47;2614704;54;20081;-75
2021/08/19 08:48:53;;;;;;;7.15;4.13;;;;;;;17.95;51.52;101041.03;2650569;36;20061;-75
2021/08/19 08:51:24;;;;;;;6.70;4.47;;;;;;;17.94;51.48;101045.75;2614823;39;20477;-76
2021/08/19 08:53:54;;;;;;;6.20;3.83;;;;;;;17.95;51.47;101049.34;2650964;36;20039;-75
2021/08/19 08:56:26;;;;;;;7.38;4.63;;;;;;;17.96;51.40;101048.31;2614245;54;20050;-75
2021/08/19 08:58:57;;;;;;;6.38;4.45;;;;;;;17.97;51.56;101044.50;2651445;36;20057;-75
2021/08/19 09:01:29;;;;;;;6.88;4.40;;;;;;;18.00;51.46;101050.56;2614249;54;20046;-75
2021/08/19 09:04:00;;;;;;;6.97;4.13;;;;;;;17.99;51.49;101053.50;2651030;36;20549;-75
2021/08/19 09:06:37;;;;;;;8.00;4.75;;;;;;;18.04;51.66;101051.97;2614842;54;20062;-74
2021/08/19 09:09:26;;;;;;;7.00;4.75;;;;;;;18.03;51.11;101054.91;2650425;36;20043;-75
2021/08/19 09:11:57;;;;;;;7.05;4.45;;;;;;;18.02;51.30;101061.47;2615084;54;20034;-75
2021/08/19 09:14:29;;;;;;;6.85;4.35;;;;;;;18.02;50.98;101064.25;2632976;36;20042;-75
2021/08/19 09:17:01;;;;;;;7.35;4.57;;;;;;;18.01;50.73;101056.97;2614545;54;20054;-75
2021/08/19 09:19:34;;;;;;;6.45;4.22;;;;;;;18.02;51.17;101062.34;2632621;36;20037;-73
2021/08/19 09:22:06;;;;;;;6.00;4.25;;;;;;;18.00;51.50;101067.19;2646405;36;20038;-75
2021/08/19 09:24:37;;;;;;;5.43;4.00;;;;;;;18.01;51.33;101056.97;2614654;54;20074;-75
2021/08/19 09:27:14;;;;;;;7.07;4.65;;;;;;;18.08;51.05;101063.56;2650474;36;20038;-74
2021/08/19 09:29:47;;;;;;;6.53;4.22;;;;;;;18.07;51.15;101070.13;2615715;54;20081;-76
2021/08/19 09:32:22;;;;;;;9.38;4.78;;;;;;;18.11;51.12;101062.34;2652002;36;20565;-74
2021/08/19 09:34:53;;;;;;;7.38;4.63;;;;;;;18.11;51.68;101062.34;2614750;54;20126;-75
2021/08/19 09:37:23;;;;;;;6.50;3.83;;;;;;;18.14;51.06;101061.97;2649758;36;20041;-73
2021/08/19 09:40:01;;;;;;;6.25;4.07;;;;;;;18.19;51.01;101060.44;2614471;54;20090;-74
2021/08/19 09:42:39;;;;;;;5.43;3.72;;;;;;;18.20;50.82;101064.91;2651726;36;20034;-74
2021/08/19 09:45:21;;;;;;;5.75;3.92;;;;;;;18.24;50.98;101069.06;2614875;54;20914;-73
2021/08/19 09:51:22;;;;;;;6.85;3.88;;;;;;;18.25;50.90;101062.47;2613906;54;20299;-76
2021/08/19 09:53:54;;;;;;;5.53;3.55;;;;;;;18.26;50.49;101061.44;2650047;36;20034;-74
2021/08/19 09:56:31;;;;;;;5.53;3.63;;;;;;;18.29;50.47;101060.19;2612735;54;20118;-74
2021/08/19 09:59:19;;;;;;;5.07;3.60;;;;;;;18.30;49.90;101062.78;2650062;36;20035;-74
2021/08/19 10:01:51;;;;;;;5.88;3.45;;;;;;;18.28;50.62;101064.88;2613884;54;20062;-76
2021/08/19 10:04:21;;;;;;;4.30;2.90;;;;;;;18.29;49.94;101060.19;2650853;36;20038;-77
2021/08/19 10:06:54;;;;;;;4.30;3.05;;;;;;;18.34;50.26;101066.94;2614117;54;20043;-75
2021/08/19 10:09:25;;;;;;;4.55;2.90;;;;;;;18.34;50.03;101058.63;2651210;36;20037;-76
2021/08/19 10:11:57;;;;;;;6.03;3.03;;;;;;;18.37;49.46;101057.41;2613645;39;20438;-72
2021/08/19 10:14:28;;;;;;;5.57;3.00;;;;;;;18.38;49.94;101060.00;2636034;36;20449;-72
2021/08/19 10:16:59;;;;;;;5.30;3.10;;;;;;;18.38;49.95;101054.47;2611251;54;20058;-73
2021/08/19 10:19:33;;;;;;;6.20;2.95;;;;;;;18.44;49.72;101059.28;2631386;36;20038;-74
2021/08/19 10:22:14;;;;;;;4.55;3.00;;;;;;;18.49;49.41;101055.13;2639279;36;20600;-73
2021/08/19 10:24:47;;;;;;;5.47;3.38;;;;;;;18.48;49.24;101062.56;2612693;54;20079;-73
2021/08/19 10:27:22;;;;;;;4.72;3.00;;;;;;;18.51;49.02;101066.88;2666863;36;20061;-73
2021/08/19 10:29:54;;;;;;;3.97;2.50;;;;;;;18.50;49.28;101060.47;2613658;54;20068;-72
2021/08/19 10:32:31;;;;;;;4.80;2.80;;;;;;;18.51;48.79;101064.13;2650520;36;20034;-73
2021/08/19 10:35:06;;;;;;;4.78;2.90;;;;;;;18.53;48.97;101064.78;2614518;54;20065;-73
2021/08/19 10:38:05;;;;;;;5.72;2.85;;;;;;;18.52;48.54;101057.53;2651595;36;20044;-72
2021/08/19 10:40:42;;;;;;;4.30;2.40;;;;;;;18.49;48.58;101061.53;2614776;31;20514;-73
2021/08/19 10:43:40;;;;;;;5.30;2.97;;;;;;;18.47;48.56;101062.72;2649335;36;20055;-73
2021/08/19 10:46:12;;;;;;;4.35;2.67;;;;;;;18.49;48.83;101066.19;2614677;31;20513;-72
2021/08/19 10:48:47;;;;;;;4.65;2.90;;;;;;;18.50;48.40;101060.47;2650383;36;20267;-73
2021/08/19 10:51:18;;;;;;;4.25;2.80;;;;;;;18.49;48.86;101060.66;2614423;54;20038;-73
2021/08/19 10:53:51;;;;;;;4.13;2.42;;;;;;;18.50;48.57;101065.16;2666973;36;21475;-74
2021/08/19 10:56:44;;;;;;;4.47;2.65;;;;;;;18.45;48.58;101063.78;2614515;39;20697;-74
2021/08/19 10:59:32;;;;;;;5.22;2.92;;;;;;;18.48;48.22;101067.22;2651595;36;20592;-74
2021/08/19 11:02:03;;;;;;;4.70;2.78;;;;;;;18.47;48.60;101065.50;2637178;36;20045;-75
2021/08/19 11:04:44;;;;;;;5.03;2.55;;;;;;;18.50;48.23;101066.03;2615580;54;20525;-73
2021/08/19 11:07:14;;;;;;;4.85;2.67;;;;;;;18.46;48.94;101061.88;2669101;36;20039;-73
2021/08/19 11:09:46;;;;;;;4.18;2.58;;;;;;;18.50;49.07;101068.78;2615774;54;20061;-74
2021/08/19 11:12:16;;;;;;;3.85;2.35;;;;;;;18.47;49.21;101060.81;2652583;36;20106;-72
2021/08/19 11:14:58;;;;;;;4.03;2.50;;;;;;;18.51;48.44;101070.53;2616025;39;20465;-73
2021/08/19 11:17:28;;;;;;;4.43;2.50;;;;;;;18.48;48.75;101065.31;2652350;36;20086;-74
2021/08/19 11:19:58;;;;;;;4.22;2.42;;;;;;;18.50;48.78;101063.25;2615626;54;20039;-74
2021/08/19 11:22:28;;;;;;;4.00;2.45;;;;;;;18.51;48.97;101064.97;2669077;36;20050;-73
2021/08/19 11:25:00;;;;;;;5.00;2.90;;;;;;;18.54;48.64;101066.50;2616019;54;20164;-73
2021/08/19 11:27:30;;;;;;;3.95;2.28;;;;;;;18.50;48.92;101068.78;2652083;36;20038;-74
2021/08/19 11:30:00;;;;;;;4.60;2.53;;;;;;;18.53;49.20;101070.31;2616264;54;20061;-74
2021/08/19 11:32:37;;;;;;;4.32;2.75;;;;;;;18.55;48.58;101071.88;2653070;36;20561;-73
2021/08/19 11:35:08;;;;;;;4.40;2.53;;;;;;;18.58;48.81;101067.91;2617014;54;20034;-74
2021/08/19 11:37:40;;;;;;;3.97;2.50;;;;;;;18.57;48.83;101074.47;2653334;36;20118;-74
2021/08/19 11:40:13;;;;;;;5.38;2.60;;;;;;;18.59;48.71;101075.16;2616128;54;20026;-74
2021/08/19 11:42:43;;;;;;;4.50;2.63;;;;;;;18.59;48.95;101064.09;2670197;36;20070;-74
2021/08/19 11:45:17;;;;;;;3.90;2.42;;;;;;;18.64;48.69;101067.16;2616000;54;20062;-74
2021/08/19 11:47:48;;;;;;;4.10;2.50;;;;;;;18.61;48.34;101071.16;2652736;36;20038;-76
2021/08/19 11:50:23;;;;;;;4.10;2.45;;;;;;;18.65;48.20;101077.22;2615837;54;20034;-76